Time;durP1;ratioP1;P1;durP2;ratioP2;P2;SDS_P1;SDS_P2;PMS_P1;PMS_P2;Temp;Humidity;BMP_temperature;BMP_pressure;BME280_temperature;BME280_humidity;BME280_pressure;Samples;Min_cycle;Max_cycle;Signal;HPM_P1;HPM_P2
2023/06/04 00:02:29;;;;;;;3.00;1.50;;;10.00;99.90;;;;;;5092581;28;20044;-66
2023/06/04 00:04:56;;;;;;;3.10;0.75;;;10.00;99.90;;;;;;5073556;28;20066;-66
2023/06/04 00:07:22;;;;;;;2.20;0.90;;;9.90;99.90;;;;;;5074107;28;20158;-67
2023/06/04 00:09:47;;;;;;;1.25;0.70;;;9.90;99.90;;;;;;5073961;28;20115;-66
2023/06/04 00:12:14;;;;;;;3.00;1.00;;;9.90;99.90;;;;;;5073359;28;20044;-67
2023/06/04 00:14:40;;;;;;;6.03;1.48;;;9.80;99.90;;;;;;5073912;28;20040;-67
2023/06/04 00:17:08;;;;;;;2.78;1.17;;;9.80;99.90;;;;;;5092136;28;20065;-67
2023/06/04 00:19:33;;;;;;;2.00;1.00;;;9.80;99.90;;;;;;5091487;28;20036;-67
2023/06/04 00:21:59;;;;;;;1.73;0.98;;;9.70;99.90;;;;;;5057186;28;20400;-67
2023/06/04 00:24:25;;;;;;;2.35;0.95;;;9.70;99.90;;;;;;5073962;28;20040;-67
2023/06/04 00:26:51;;;;;;;3.35;1.70;;;9.70;99.90;;;;;;5091261;28;20051;-67
2023/06/04 00:29:17;;;;;;;2.30;1.02;;;9.60;99.90;;;;;;5073551;28;20044;-67
2023/06/04 00:31:43;;;;;;;2.55;1.15;;;9.60;99.90;;;;;;5072886;28;20071;-67
2023/06/04 00:34:10;;;;;;;3.70;1.30;;;9.60;99.90;;;;;;5073734;28;20368;-66
2023/06/04 00:36:36;;;;;;;1.85;1.17;;;9.50;99.90;;;;;;5073569;28;20118;-67
2023/06/04 00:39:02;;;;;;;1.83;1.00;;;9.50;99.90;;;;;;5072935;28;20135;-67
2023/06/04 00:41:28;;;;;;;3.22;1.63;;;9.50;99.90;;;;;;5091636;28;20054;-66
2023/06/04 00:43:56;;;;;;;4.03;1.70;;;9.50;99.90;;;;;;5073324;28;20559;-66
2023/06/04 00:46:25;;;;;;;3.15;1.40;;;9.50;99.90;;;;;;5072648;28;20101;-66
2023/06/04 00:48:52;;;;;;;5.38;1.75;;;9.40;99.90;;;;;;5091355;28;20036;-66
2023/06/04 00:51:18;;;;;;;4.00;1.23;;;9.40;99.90;;;;;;5091071;28;20059;-66
2023/06/04 00:53:45;;;;;;;2.00;1.10;;;9.40;99.90;;;;;;5072491;28;20104;-66
2023/06/04 00:56:11;;;;;;;2.88;1.33;;;9.40;99.90;;;;;;5091388;28;20040;-66
2023/06/04 00:58:39;;;;;;;5.40;1.80;;;9.40;99.90;;;;;;5091239;28;20072;-66
2023/06/04 01:01:14;;;;;;;1.92;1.35;;;9.30;99.90;;;;;;5090699;28;20040;-66
2023/06/04 01:03:44;;;;;;;3.33;1.55;;;9.30;99.90;;;;;;5072779;28;20035;-67
2023/06/04 01:06:21;;;;;;;3.03;1.38;;;9.30;99.90;;;;;;5072909;28;20048;-67
2023/06/04 01:08:54;;;;;;;3.35;1.45;;;9.30;99.90;;;;;;5090907;28;20040;-67
2023/06/04 01:11:34;;;;;;;3.05;1.08;;;9.30;99.90;;;;;;5072714;28;20048;-67
2023/06/04 01:14:00;;;;;;;;;;;9.30;99.90;;;;;;5091068;28;20064;-67
2023/06/04 01:16:28;;;;;;;2.60;1.25;;;9.30;99.90;;;;;;5056111;28;20388;-67
2023/06/04 01:18:59;;;;;;;1.30;0.80;;;9.30;99.90;;;;;;5072673;28;20079;-67
2023/06/04 01:21:29;;;;;;;1.45;0.73;;;9.30;99.90;;;;;;5090214;28;20035;-67
2023/06/04 01:24:00;;;;;;;2.95;1.42;;;9.20;99.90;;;;;;5070684;28;20040;-67
2023/06/04 01:26:30;;;;;;;2.53;1.35;;;9.20;99.90;;;;;;5088662;28;20925;-67
2023/06/04 01:28:58;;;;;;;3.83;1.10;;;9.20;99.90;;;;;;5059274;28;20408;-67
2023/06/04 01:31:25;;;;;;;3.65;1.50;;;9.20;99.90;;;;;;5072930;28;20056;-67
2023/06/04 01:33:58;;;;;;;5.05;1.20;;;9.20;99.90;;;;;;5090382;28;20031;-67
2023/06/04 01:36:24;;;;;;;1.95;1.48;;;9.10;99.90;;;;;;5107622;28;20047;-67
2023/06/04 01:38:51;;;;;;;1.52;0.90;;;9.10;99.90;;;;;;5105503;28;20061;-67
2023/06/04 01:41:17;;;;;;;1.27;0.93;;;9.10;99.90;;;;;;5087284;28;20059;-67
2023/06/04 01:43:43;;;;;;;6.13;1.52;;;9.10;99.90;;;;;;5091864;28;20039;-67
2023/06/04 01:46:09;;;;;;;2.80;1.10;;;9.10;99.90;;;;;;5075490;28;20126;-67
2023/06/04 01:48:36;;;;;;;2.58;1.08;;;9.00;99.90;;;;;;5108296;28;20040;-67
2023/06/04 01:51:02;;;;;;;4.68;2.35;;;9.00;99.90;;;;;;5088829;28;20063;-67
2023/06/04 01:53:28;;;;;;;4.57;2.10;;;9.00;99.90;;;;;;5080536;28;20088;-67
2023/06/04 01:55:54;;;;;;;3.15;1.63;;;9.00;99.90;;;;;;5109789;28;20433;-67
2023/06/04 01:58:22;;;;;;;2.95;1.13;;;8.90;99.90;;;;;;5092673;28;20131;-67
2023/06/04 02:00:52;;;;;;;3.55;1.13;;;8.90;99.90;;;;;;5092384;28;20079;-67
2023/06/04 02:03:18;;;;;;;1.05;0.90;;;8.90;99.90;;;;;;5091819;28;20045;-67
2023/06/04 02:05:46;;;;;;;1.80;1.30;;;8.90;99.90;;;;;;5086815;28;20093;-67
2023/06/04 02:08:18;;;;;;;1.52;1.13;;;8.90;99.90;;;;;;5110131;28;20491;-67
2023/06/04 02:10:46;;;;;;;3.75;1.20;;;8.90;99.90;;;;;;5091638;28;20042;-67
2023/06/04 02:13:13;;;;;;;2.95;1.15;;;8.90;99.90;;;;;;5084887;28;20082;-67
2023/06/04 02:15:38;;;;;;;2.38;1.17;;;8.90;99.90;;;;;;5088021;28;20043;-67
2023/06/04 02:18:20;;;;;;;4.78;1.20;;;8.80;99.90;;;;;;5086068;28;20039;-67
2023/06/04 02:20:47;;;;;;;2.22;1.20;;;8.80;99.90;;;;;;5090778;28;20111;-68
2023/06/04 02:23:15;;;;;;;2.33;1.15;;;8.80;99.90;;;;;;5097853;28;20383;-67
2023/06/04 02:25:41;;;;;;;2.15;1.30;;;8.80;99.90;;;;;;5091755;28;20035;-67
2023/06/04 02:28:08;;;;;;;3.67;2.08;;;8.70;99.90;;;;;;5110354;28;20039;-67
2023/06/04 02:30:33;;;;;;;2.15;1.40;;;8.70;99.90;;;;;;5109493;28;20046;-67
2023/06/04 02:33:00;;;;;;;2.50;1.42;;;8.70;99.90;;;;;;5075061;28;20126;-67
2023/06/04 02:35:30;;;;;;;1.30;0.80;;;8.70;99.90;;;;;;5110323;28;20100;-67
2023/06/04 02:37:57;;;;;;;;;;;8.60;99.90;;;;;;5074984;28;20031;-67
2023/06/04 02:40:25;;;;;;;5.15;1.70;;;8.60;99.90;;;;;;5110024;28;19915;-68
2023/06/04 02:42:52;;;;;;;2.40;1.13;;;8.60;99.90;;;;;;5092077;28;20039;-68
2023/06/04 02:45:18;;;;;;;2.75;1.00;;;8.60;99.90;;;;;;5091473;28;20653;-68
2023/06/04 02:47:44;;;;;;;4.05;1.13;;;8.50;99.90;;;;;;5091664;28;20154;-68
2023/06/04 02:50:11;;;;;;;2.80;1.27;;;8.60;99.90;;;;;;5088238;28;20197;-67
2023/06/04 02:52:37;;;;;;;3.70;1.92;;;8.60;99.90;;;;;;5087799;28;20137;-67
2023/06/04 02:55:08;;;;;;;1.42;0.85;;;8.60;99.90;;;;;;5080748;28;20040;-67
2023/06/04 02:57:35;;;;;;;3.22;1.20;;;8.60;99.90;;;;;;5063977;28;20092;-67
2023/06/04 03:00:02;;;;;;;3.10;1.20;;;8.50;99.90;;;;;;5087659;28;20044;-67
2023/06/04 03:02:28;;;;;;;2.75;1.30;;;8.50;99.90;;;;;;5088528;28;20044;-67
2023/06/04 03:04:54;;;;;;;3.03;1.23;;;8.60;99.90;;;;;;5088549;28;20047;-67
2023/06/04 03:07:22;;;;;;;1.33;0.70;;;8.50;99.90;;;;;;5089188;28;20434;-67
2023/06/04 03:09:49;;;;;;;1.85;1.15;;;8.50;99.90;;;;;;5071304;28;20036;-67
2023/06/04 03:12:15;;;;;;;2.25;1.52;;;8.40;99.90;;;;;;5089908;28;20046;-67
2023/06/04 03:14:41;;;;;;;1.98;1.15;;;8.40;99.90;;;;;;5088728;28;20112;-67
2023/06/04 03:17:12;;;;;;;2.80;1.75;;;8.40;99.90;;;;;;5088157;28;20043;-67
2023/06/04 03:19:40;;;;;;;1.52;0.90;;;8.40;99.90;;;;;;5087990;28;20426;-67
2023/06/04 03:22:07;;;;;;;1.90;0.93;;;8.40;99.90;;;;;;5071262;28;20040;-67
2023/06/04 03:24:35;;;;;;;1.13;0.70;;;8.40;99.90;;;;;;5071472;28;20135;-67
2023/06/04 03:27:05;;;;;;;2.25;1.17;;;8.30;99.90;;;;;;5091205;28;20046;-67
2023/06/04 03:29:32;;;;;;;2.38;1.10;;;8.40;99.90;;;;;;5092101;28;20078;-67
2023/06/04 03:31:58;;;;;;;1.63;0.93;;;8.40;99.90;;;;;;5093286;28;20048;-67
2023/06/04 03:34:27;;;;;;;1.30;0.80;;;8.40;99.90;;;;;;5092652;28;20377;-67
2023/06/04 03:36:54;;;;;;;1.05;0.50;;;8.40;99.90;;;;;;5091586;28;20118;-67
2023/06/04 03:39:21;;;;;;;2.60;0.60;;;8.40;99.90;;;;;;5091856;28;20036;-67
2023/06/04 03:41:47;;;;;;;1.05;0.85;;;8.30;99.90;;;;;;5092282;28;20051;-67
2023/06/04 03:44:17;;;;;;;0.52;0.50;;;8.30;99.90;;;;;;5092711;28;20055;-67
2023/06/04 03:46:44;;;;;;;1.08;0.80;;;8.30;99.90;;;;;;5091609;28;20049;-67
2023/06/04 03:49:11;;;;;;;1.38;0.82;;;8.30;99.90;;;;;;5073912;28;20210;-67
2023/06/04 03:51:37;;;;;;;2.00;0.65;;;8.30;99.90;;;;;;5068356;28;20140;-67
2023/06/04 03:54:03;;;;;;;1.10;0.70;;;8.30;99.90;;;;;;5051004;28;20104;-67
2023/06/04 03:56:29;;;;;;;1.50;0.70;;;8.30;99.90;;;;;;5033947;28;20041;-67
2023/06/04 03:58:55;;;;;;;1.85;1.08;;;8.30;99.90;;;;;;5053848;28;20116;-67
2023/06/04 04:01:23;;;;;;;1.77;1.02;;;8.30;99.90;;;;;;5075254;28;20374;-67
2023/06/04 04:03:49;;;;;;;1.38;1.20;;;8.40;99.90;;;;;;5033557;28;20124;-67
2023/06/04 04:06:15;;;;;;;1.17;0.90;;;8.30;99.90;;;;;;5050625;28;20442;-67
2023/06/04 04:08:44;;;;;;;2.00;1.17;;;8.40;99.90;;;;;;5077582;28;20032;-67
2023/06/04 04:11:15;;;;;;;1.23;0.80;;;8.40;99.90;;;;;;5090928;28;20044;-67
2023/06/04 04:13:40;;;;;;;3.40;1.48;;;8.40;99.90;;;;;;5079128;28;20051;-67
2023/06/04 04:16:06;;;;;;;2.53;1.30;;;8.40;99.90;;;;;;5069203;28;20115;-67
2023/06/04 04:18:36;;;;;;;2.45;1.15;;;8.50;99.90;;;;;;5071172;28;20121;-67
2023/06/04 04:21:03;;;;;;;1.60;1.27;;;8.50;99.90;;;;;;5082382;28;20048;-67
2023/06/04 04:23:31;;;;;;;2.13;1.35;;;8.60;99.90;;;;;;5091116;28;20611;-67
2023/06/04 04:25:58;;;;;;;3.85;1.85;;;8.60;99.90;;;;;;5090602;28;20040;-67
2023/06/04 04:28:28;;;;;;;1.80;1.38;;;8.70;99.90;;;;;;5090576;28;20039;-67
2023/06/04 04:30:56;;;;;;;4.75;2.13;;;8.70;99.90;;;;;;5091539;28;20497;-67
2023/06/04 04:33:24;;;;;;;2.80;1.83;;;8.80;99.90;;;;;;5056194;28;20178;-67
2023/06/04 04:35:52;;;;;;;2.78;1.42;;;8.90;99.90;;;;;;5071417;28;20083;-67
2023/06/04 04:38:19;;;;;;;3.35;1.70;;;9.00;99.90;;;;;;5052378;28;20044;-67
2023/06/04 04:40:47;;;;;;;2.92;1.73;;;9.00;99.90;;;;;;5070413;28;20036;-67
2023/06/04 04:43:13;;;;;;;3.65;1.50;;;9.10;99.90;;;;;;5071202;28;20123;-67
2023/06/04 04:45:39;;;;;;;2.60;1.10;;;9.20;99.90;;;;;;5069600;28;20042;-67
2023/06/04 04:48:05;;;;;;;2.65;1.80;;;9.30;99.90;;;;;;5069866;28;20404;-67
2023/06/04 04:50:31;;;;;;;3.97;2.08;;;9.40;99.90;;;;;;5085460;28;20055;-67
2023/06/04 04:52:58;;;;;;;4.57;1.77;;;9.50;99.90;;;;;;5110932;28;20040;-67
2023/06/04 04:55:24;;;;;;;2.83;1.60;;;9.60;99.90;;;;;;5093697;28;20114;-67
2023/06/04 04:57:50;;;;;;;7.03;1.60;;;9.70;99.90;;;;;;5093086;28;20543;-67
2023/06/04 05:00:17;;;;;;;2.63;1.58;;;9.80;99.90;;;;;;5076434;28;20131;-67
2023/06/04 05:02:42;;;;;;;2.10;1.08;;;9.90;99.90;;;;;;5093178;28;20051;-67
2023/06/04 05:05:10;;;;;;;4.40;1.63;;;10.10;99.90;;;;;;5092788;28;20039;-67
2023/06/04 05:07:36;;;;;;;2.78;1.55;;;10.20;99.90;;;;;;5093521;28;20388;-67
2023/06/04 05:10:02;;;;;;;3.05;1.38;;;10.30;99.90;;;;;;5093373;28;20043;-67
2023/06/04 05:12:31;;;;;;;2.70;1.20;;;10.50;99.90;;;;;;5110860;28;20047;-68
2023/06/04 05:14:57;;;;;;;2.33;1.30;;;10.60;99.90;;;;;;5093393;28;20286;-67
2023/06/04 05:17:29;;;;;;;2.78;1.50;;;10.70;99.90;;;;;;5109898;28;20100;-68
2023/06/04 05:20:11;;;;;;;3.22;1.40;;;10.80;99.90;;;;;;5110384;28;20039;-68
2023/06/04 05:22:37;;;;;;;5.47;1.98;;;10.90;99.90;;;;;;5092734;28;20043;-68
2023/06/04 05:25:05;;;;;;;4.03;1.70;;;11.00;99.90;;;;;;5090870;28;20035;-68
2023/06/04 05:27:31;;;;;;;2.75;1.33;;;11.10;99.90;;;;;;5090886;28;20039;-68
2023/06/04 05:29:57;;;;;;;4.82;1.08;;;11.30;99.90;;;;;;5091530;28;20104;-67
2023/06/04 05:32:23;;;;;;;2.97;1.20;;;11.40;99.90;;;;;;5074493;28;20243;-67
2023/06/04 05:34:49;;;;;;;2.63;1.08;;;11.50;99.90;;;;;;5090524;28;20035;-67
2023/06/04 05:37:18;;;;;;;1.92;0.93;;;11.60;99.90;;;;;;5109050;28;20062;-67
2023/06/04 05:39:44;;;;;;;2.30;1.20;;;11.70;99.90;;;;;;5090922;28;20097;-67
2023/06/04 05:42:10;;;;;;;1.60;1.05;;;11.80;99.90;;;;;;5091730;28;20051;-67
2023/06/04 05:44:36;;;;;;;5.43;1.48;;;11.90;99.90;;;;;;5109815;28;20039;-67
2023/06/04 05:47:02;;;;;;;4.50;1.90;;;12.00;99.90;;;;;;5090890;28;20042;-67
2023/06/04 05:49:27;;;;;;;4.22;1.63;;;12.20;99.90;;;;;;5091224;28;20043;-68
2023/06/04 05:51:53;;;;;;;4.25;1.73;;;12.30;99.90;;;;;;5087728;28;20105;-68
2023/06/04 05:54:19;;;;;;;2.47;1.67;;;12.40;99.90;;;;;;5087603;28;20101;-69
2023/06/04 05:56:45;;;;;;;3.15;1.77;;;12.50;99.90;;;;;;5088242;28;20369;-68
2023/06/04 05:59:11;;;;;;;2.95;1.15;;;12.70;99.90;;;;;;5087795;28;20377;-67
2023/06/04 06:01:38;;;;;;;1.90;1.20;;;12.80;99.90;;;;;;5087630;28;20118;-67
2023/06/04 06:04:03;;;;;;;3.50;1.35;;;12.90;99.90;;;;;;5088133;28;20043;-67
2023/06/04 06:06:29;;;;;;;2.45;1.48;;;13.00;99.90;;;;;;5089242;28;20553;-68
2023/06/04 06:08:55;;;;;;;3.53;2.08;;;13.10;99.90;;;;;;5070428;28;20044;-66
2023/06/04 06:11:21;;;;;;;3.15;1.95;;;13.30;99.90;;;;;;5070928;28;20036;-67
2023/06/04 06:13:47;;;;;;;2.47;1.67;;;13.40;99.90;;;;;;5087677;28;20115;-67
2023/06/04 06:16:13;;;;;;;3.15;1.50;;;13.50;99.90;;;;;;5088593;28;20120;-67
2023/06/04 06:18:39;;;;;;;2.90;1.45;;;13.70;99.90;;;;;;5087526;28;20032;-66
2023/06/04 06:21:05;;;;;;;3.67;1.15;;;13.80;99.90;;;;;;5087650;28;20048;-67
2023/06/04 06:23:31;;;;;;;2.17;1.40;;;14.00;99.90;;;;;;5088353;28;20044;-66
2023/06/04 06:25:57;;;;;;;2.90;1.60;;;14.10;99.90;;;;;;5087717;28;20040;-67
2023/06/04 06:28:23;;;;;;;3.47;1.20;;;14.30;99.90;;;;;;5087556;28;20190;-66
2023/06/04 06:30:49;;;;;;;2.50;1.02;;;14.50;99.90;;;;;;5088204;28;20074;-66
2023/06/04 06:33:14;;;;;;;4.97;1.30;;;14.70;99.90;;;;;;5070715;28;20048;-67
2023/06/04 06:35:40;;;;;;;2.67;1.17;;;14.90;99.90;;;;;;5086929;28;20039;-68
2023/06/04 06:38:06;;;;;;;3.92;1.27;;;15.00;99.90;;;;;;5070817;28;20067;-67
2023/06/04 06:40:32;;;;;;;2.47;1.70;;;15.20;99.90;;;;;;5087280;28;20075;-67
2023/06/04 06:42:58;;;;;;;3.20;1.60;;;15.30;99.90;;;;;;5086678;28;20046;-68
2023/06/04 06:45:24;;;;;;;2.30;1.17;;;15.50;99.90;;;;;;5087306;28;20052;-68
2023/06/04 06:47:49;;;;;;;1.98;1.17;;;15.70;99.90;;;;;;5087538;28;20060;-67
2023/06/04 06:50:15;;;;;;;4.25;1.92;;;15.90;99.90;;;;;;5086488;28;20052;-67
2023/06/04 06:52:41;;;;;;;5.50;1.55;;;16.10;99.90;;;;;;5087733;28;20043;-68
2023/06/04 06:55:07;;;;;;;2.97;1.10;;;16.30;99.90;;;;;;5089030;28;20113;-68
2023/06/04 06:57:33;;;;;;;2.35;1.17;;;16.40;99.90;;;;;;5070062;28;20036;-67
2023/06/04 06:59:59;;;;;;;3.63;1.27;;;16.60;99.90;;;;;;5087608;28;20503;-68
2023/06/04 07:02:25;;;;;;;3.95;1.10;;;16.80;99.90;;;;;;5090258;28;20488;-67
2023/06/04 07:04:51;;;;;;;2.75;1.17;;;16.80;99.90;;;;;;5092128;28;20044;-68
2023/06/04 07:07:17;;;;;;;2.33;1.60;;;17.00;99.90;;;;;;5074177;28;20515;-67
2023/06/04 07:09:43;;;;;;;8.13;1.00;;;17.10;99.90;;;;;;5092237;28;20116;-67
2023/06/04 07:12:08;;;;;;;2.80;0.75;;;17.30;99.90;;;;;;5089407;28;20068;-67
2023/06/04 07:14:34;;;;;;;2.38;1.25;;;17.50;99.90;;;;;;5091896;28;20040;-68
2023/06/04 07:17:00;;;;;;;3.13;0.80;;;17.70;99.90;;;;;;5092067;28;20490;-67
2023/06/04 07:19:26;;;;;;;2.08;1.08;;;17.90;99.90;;;;;;5092499;28;20028;-67
2023/06/04 07:21:54;;;;;;;1.05;0.60;;;18.10;99.90;;;;;;5091444;28;20109;-68
2023/06/04 07:24:20;;;;;;;1.80;1.05;;;18.20;99.90;;;;;;5093067;28;20123;-68
2023/06/04 07:26:46;;;;;;;1.15;0.60;;;18.40;99.90;;;;;;5091065;28;20082;-68
2023/06/04 07:29:11;;;;;;;1.60;0.63;;;18.60;99.90;;;;;;5091331;28;20050;-66
2023/06/04 07:31:37;;;;;;;3.40;0.98;;;18.60;99.90;;;;;;5092549;28;20113;-67
2023/06/04 07:34:03;;;;;;;1.83;0.88;;;18.70;99.90;;;;;;5091446;28;20036;-67
2023/06/04 07:36:30;;;;;;;1.88;0.93;;;18.60;99.90;;;;;;5092588;28;20032;-68
2023/06/04 07:38:56;;;;;;;2.67;0.80;;;18.60;99.90;;;;;;5090981;28;20117;-67
2023/06/04 07:41:22;;;;;;;2.80;0.95;;;18.80;99.90;;;;;;5092582;28;20040;-67
2023/06/04 07:43:48;;;;;;;1.25;0.73;;;19.00;99.90;;;;;;5091262;28;20569;-68
2023/06/04 07:46:18;;;;;;;1.98;1.10;;;19.20;99.90;;;;;;5090563;28;20097;-66
2023/06/04 07:48:45;;;;;;;1.38;0.65;;;19.30;99.90;;;;;;5091507;28;20051;-68
2023/06/04 07:51:12;;;;;;;1.58;0.90;;;19.40;99.90;;;;;;5091152;28;20060;-68
2023/06/04 07:53:38;;;;;;;1.20;0.70;;;19.50;99.90;;;;;;5092237;28;20048;-68
2023/06/04 07:56:04;;;;;;;1.33;0.68;;;19.60;99.90;;;;;;5091001;28;20036;-68
2023/06/04 07:58:30;;;;;;;2.78;1.33;;;19.70;99.90;;;;;;5091167;28;20078;-67
2023/06/04 08:00:57;;;;;;;2.85;0.80;;;19.80;99.90;;;;;;5090702;28;20051;-68
2023/06/04 08:03:24;;;;;;;1.45;0.75;;;20.00;99.90;;;;;;5092307;28;20051;-67
2023/06/04 08:05:50;;;;;;;4.40;0.98;;;20.30;99.90;;;;;;5090687;28;20036;-67
2023/06/04 08:08:16;;;;;;;0.82;0.52;;;20.50;99.90;;;;;;5089810;28;20096;-67
2023/06/04 08:10:42;;;;;;;1.92;0.50;;;20.70;99.90;;;;;;5090846;28;20040;-67
2023/06/04 08:13:09;;;;;;;2.78;0.77;;;20.80;99.90;;;;;;5089717;28;20502;-67
2023/06/04 08:15:35;;;;;;;2.00;0.82;;;20.80;99.90;;;;;;5089472;28;20373;-67
2023/06/04 08:18:01;;;;;;;2.33;0.80;;;20.80;99.90;;;;;;5089795;28;20051;-67
2023/06/04 08:20:27;;;;;;;1.35;0.60;;;21.00;99.90;;;;;;5072997;28;20044;-67
2023/06/04 08:22:53;;;;;;;1.40;0.40;;;21.20;99.90;;;;;;5090611;28;20047;-69
2023/06/04 08:25:18;;;;;;;2.13;0.50;;;21.40;99.90;;;;;;5090852;28;20439;-67
2023/06/04 08:27:44;;;;;;;1.73;0.32;;;21.60;99.90;;;;;;5089030;28;20040;-66
2023/06/04 08:30:11;;;;;;;0.73;0.40;;;21.70;99.90;;;;;;5091055;28;20047;-67
2023/06/04 08:32:37;;;;;;;3.53;0.60;;;21.80;99.90;;;;;;5089372;28;20075;-67
2023/06/04 08:35:03;;;;;;;3.65;0.50;;;22.00;99.90;;;;;;5090290;28;20078;-67
2023/06/04 08:37:29;;;;;;;0.68;0.50;;;22.10;99.90;;;;;;5089496;28;20044;-66
2023/06/04 08:39:55;;;;;;;4.70;0.68;;;21.90;99.90;;;;;;5073134;28;20044;-67
2023/06/04 08:42:44;;;;;;;1.63;0.63;;;21.80;99.90;;;;;;5090909;28;20046;-67
2023/06/04 08:45:13;;;;;;;1.50;0.63;;;21.70;99.90;;;;;;5089933;28;20105;-67
2023/06/04 08:47:47;;;;;;;0.60;0.40;;;21.70;99.90;;;;;;5091707;28;20062;-68
2023/06/04 08:50:18;;;;;;;1.25;0.25;;;21.90;99.90;;;;;;5095067;28;20628;-66
2023/06/04 08:52:44;;;;;;;1.20;0.52;;;22.20;99.90;;;;;;5076480;28;20047;-67
2023/06/04 08:55:13;;;;;;;1.25;0.40;;;22.60;99.90;;;;;;5093699;28;20383;-67
2023/06/04 08:57:40;;;;;;;0.75;0.50;;;22.90;99.70;;;;;;5111151;28;20096;-66
2023/06/04 09:00:08;;;;;;;0.35;0.20;;;23.00;99.90;;;;;;5111480;28;20597;-67
2023/06/04 09:02:39;;;;;;;1.77;0.50;;;23.00;99.90;;;;;;5092877;28;20040;-67
2023/06/04 09:05:10;;;;;;;0.93;0.50;;;23.20;99.90;;;;;;5076582;28;20380;-66
2023/06/04 09:07:40;;;;;;;1.55;0.80;;;23.40;99.80;;;;;;5093461;28;20074;-67
2023/06/04 09:10:09;;;;;;;2.88;0.63;;;23.50;99.30;;;;;;5110674;28;20118;-67
2023/06/04 09:12:37;;;;;;;2.70;0.45;;;23.40;98.40;;;;;;5093136;28;20040;-67
2023/06/04 09:15:03;;;;;;;1.52;0.50;;;23.50;98.20;;;;;;5111489;28;20131;-67
2023/06/04 09:17:29;;;;;;;1.23;0.50;;;23.60;98.80;;;;;;5092491;28;20714;-67
2023/06/04 09:19:55;;;;;;;3.45;0.50;;;23.70;98.10;;;;;;5092986;28;20039;-67
2023/06/04 09:22:35;;;;;;;4.20;0.77;;;23.80;98.20;;;;;;5111405;28;20047;-67
2023/06/04 09:25:04;;;;;;;1.63;0.55;;;23.70;97.50;;;;;;5092447;28;20039;-67
2023/06/04 09:27:39;;;;;;;3.00;0.38;;;23.50;96.70;;;;;;5093081;28;20040;-67
2023/06/04 09:30:08;;;;;;;0.98;0.30;;;23.50;96.40;;;;;;5110865;28;20085;-66
2023/06/04 09:32:34;;;;;;;0.80;0.38;;;23.70;96.50;;;;;;5092159;28;20126;-67
2023/06/04 09:35:16;;;;;;;1.30;0.38;;;24.00;96.70;;;;;;5075633;28;20123;-66
2023/06/04 09:37:56;;;;;;;0.88;0.40;;;24.10;94.00;;;;;;5110554;28;21135;-67
2023/06/04 09:40:23;;;;;;;1.10;0.40;;;24.00;95.30;;;;;;5075851;28;20624;-67
2023/06/04 09:42:56;;;;;;;1.48;0.30;;;24.20;95.00;;;;;;5110775;28;20039;-66
2023/06/04 09:45:35;;;;;;;1.15;0.30;;;24.30;93.90;;;;;;5092388;28;20170;-69
2023/06/04 09:48:02;;;;;;;1.10;0.35;;;24.40;92.90;;;;;;5092491;28;20075;-66
2023/06/04 09:50:33;;;;;;;1.73;0.50;;;24.40;92.60;;;;;;5110636;28;20052;-67
2023/06/04 09:52:59;;;;;;;0.90;0.50;;;24.30;91.00;;;;;;5092082;28;20039;-66
2023/06/04 09:55:25;;;;;;;0.80;0.40;;;24.30;92.00;;;;;;5092562;28;20035;-67
2023/06/04 09:57:52;;;;;;;1.45;0.50;;;24.50;92.00;;;;;;5092411;28;20039;-67
2023/06/04 10:00:21;;;;;;;1.20;0.40;;;24.60;92.60;;;;;;5091829;28;20039;-66
2023/06/04 10:02:48;;;;;;;0.57;0.33;;;24.80;92.10;;;;;;5110597;28;20675;-67
2023/06/04 10:05:15;;;;;;;1.10;0.60;;;24.80;92.10;;;;;;5075305;28;20273;-67
2023/06/04 10:07:45;;;;;;;0.93;0.40;;;24.90;92.00;;;;;;5110008;28;20127;-67
2023/06/04 10:10:16;;;;;;;0.98;0.30;;;25.00;91.80;;;;;;5110387;28;20075;-66
2023/06/04 10:12:43;;;;;;;3.15;0.60;;;25.10;90.90;;;;;;5091577;28;20050;-67
2023/06/04 10:15:13;;;;;;;1.40;0.40;;;25.20;91.40;;;;;;5092402;28;20040;-66
2023/06/04 10:17:39;;;;;;;1.27;0.45;;;25.40;90.80;;;;;;5110284;28;20042;-67
2023/06/04 10:20:08;;;;;;;1.55;0.30;;;25.60;90.90;;;;;;5074581;28;20093;-67
2023/06/04 10:22:35;;;;;;;2.67;0.68;;;25.70;89.90;;;;;;5075027;28;20039;-68
2023/06/04 10:25:02;;;;;;;1.55;0.50;;;25.90;90.20;;;;;;5110184;28;20106;-67
2023/06/04 10:27:30;;;;;;;1.08;0.50;;;25.80;88.40;;;;;;5091376;28;20050;-67
2023/06/04 10:29:57;;;;;;;0.87;0.37;;;25.70;88.10;;;;;;5075052;28;20065;-67
2023/06/04 10:32:29;;;;;;;4.55;0.68;;;25.70;88.30;;;;;;5110102;28;20343;-67
2023/06/04 10:34:57;;;;;;;1.85;0.63;;;25.60;86.90;;;;;;5074193;28;20035;-67
2023/06/04 10:37:26;;;;;;;1.48;0.60;;;25.50;87.00;;;;;;5113143;28;20063;-66
2023/06/04 10:39:54;;;;;;;1.52;0.73;;;25.40;79.60;;;;;;5079183;28;20126;-66
2023/06/04 10:42:22;;;;;;;1.48;0.50;;;25.20;86.10;;;;;;5114043;28;20036;-67
2023/06/04 10:44:57;;;;;;;2.10;0.40;;;25.40;87.00;;;;;;5095777;28;20039;-67
2023/06/04 10:47:31;;;;;;;1.85;0.77;;;25.50;85.30;;;;;;5095665;28;20127;-67
2023/06/04 10:50:11;;;;;;;0.60;0.30;;;25.60;85.00;;;;;;5095876;28;20050;-66
2023/06/04 10:52:39;;;;;;;2.70;0.40;;;25.70;84.10;;;;;;5114230;28;20055;-67
2023/06/04 10:55:08;;;;;;;1.05;0.35;;;25.90;85.50;;;;;;5113461;28;20044;-66
2023/06/04 10:57:34;;;;;;;0.70;0.40;;;26.00;84.40;;;;;;5113888;28;20067;-66
2023/06/04 11:00:05;;;;;;;0.88;0.22;;;25.90;82.20;;;;;;5095375;28;20151;-66
2023/06/04 11:02:31;;;;;;;3.38;0.50;;;25.80;81.80;;;;;;5095087;28;20646;-66
2023/06/04 11:05:09;;;;;;;0.75;0.38;;;25.80;81.40;;;;;;5095511;28;20047;-66
2023/06/04 11:07:46;;;;;;;0.45;0.30;;;26.00;81.00;;;;;;5113800;28;20036;-64
2023/06/04 11:10:17;;;;;;;1.40;0.40;;;26.00;80.70;;;;;;5091300;28;20048;-66
2023/06/04 11:12:46;;;;;;;1.85;0.30;;;25.80;77.40;;;;;;5092947;28;20048;-65
2023/06/04 11:15:16;;;;;;;0.75;0.38;;;25.80;80.30;;;;;;5075092;28;20055;-66
2023/06/04 11:17:55;;;;;;;1.13;0.43;;;25.80;76.20;;;;;;5092679;28;20036;-66
2023/06/04 11:20:22;;;;;;;0.75;0.30;;;25.90;79.10;;;;;;5093345;28;20036;-66
2023/06/04 11:22:52;;;;;;;1.15;0.43;;;25.90;79.60;;;;;;5092261;28;20097;-67
2023/06/04 11:25:18;;;;;;;2.85;0.65;;;25.90;79.00;;;;;;5058010;28;20496;-65
2023/06/04 11:27:44;;;;;;;0.88;0.40;;;25.90;77.20;;;;;;5074667;28;20122;-66
2023/06/04 11:30:12;;;;;;;2.58;0.57;;;25.80;78.50;;;;;;5074181;28;20118;-66
2023/06/04 11:32:37;;;;;;;1.40;0.38;;;25.70;78.80;;;;;;5092790;28;20039;-66
2023/06/04 11:35:07;;;;;;;1.55;0.50;;;25.80;78.60;;;;;;5074664;28;20388;-66
2023/06/04 11:37:34;;;;;;;1.00;0.40;;;25.80;78.50;;;;;;5092254;28;20040;-67
2023/06/04 11:40:06;;;;;;;1.55;0.43;;;25.80;77.60;;;;;;5092782;28;20119;-68
2023/06/04 11:42:32;;;;;;;1.60;0.60;;;25.70;76.40;;;;;;5074485;28;20048;-67
2023/06/04 11:44:58;;;;;;;0.93;0.30;;;25.60;77.30;;;;;;5073997;28;20040;-67
2023/06/04 11:47:25;;;;;;;0.70;0.30;;;25.60;77.70;;;;;;5074242;28;20044;-68
2023/06/04 11:49:57;;;;;;;3.17;0.50;;;25.70;78.70;;;;;;5074237;28;20051;-68
2023/06/04 11:52:23;;;;;;;0.50;0.20;;;25.70;77.50;;;;;;5091637;28;20742;-67
2023/06/04 11:54:49;;;;;;;1.05;0.30;;;25.60;77.30;;;;;;5074087;28;20040;-67
2023/06/04 11:57:15;;;;;;;0.43;0.20;;;25.60;76.30;;;;;;5074101;28;20044;-66
2023/06/04 11:59:41;;;;;;;1.00;0.30;;;25.70;76.60;;;;;;5091487;28;20111;-66
2023/06/04 12:02:08;;;;;;;0.75;0.47;;;25.70;77.10;;;;;;5074352;28;20392;-67
2023/06/04 12:04:34;;;;;;;0.47;0.30;;;25.60;73.50;;;;;;5073562;28;20529;-66
2023/06/04 12:07:02;;;;;;;2.25;0.32;;;25.60;75.60;;;;;;5074299;28;20310;-67
2023/06/04 12:09:34;;;;;;;0.75;0.50;;;25.50;75.10;;;;;;5074147;28;20047;-66
2023/06/04 12:12:07;;;;;;;0.77;0.20;;;25.50;75.60;;;;;;5073107;28;20044;-66
2023/06/04 12:14:34;;;;;;;0.70;0.25;;;25.70;75.00;;;;;;5074053;28;20380;-67
2023/06/04 12:17:02;;;;;;;2.80;0.40;;;25.70;75.60;;;;;;5092362;28;20032;-67
2023/06/04 12:19:28;;;;;;;0.67;0.30;;;25.70;75.30;;;;;;5073252;28;20093;-67
2023/06/04 12:22:05;;;;;;;0.60;0.40;;;25.80;74.40;;;;;;5073594;28;20127;-67
2023/06/04 12:24:35;;;;;;;1.38;0.40;;;25.60;73.00;;;;;;5073555;28;20040;-69
2023/06/04 12:27:06;;;;;;;0.75;0.30;;;25.60;73.40;;;;;;5073289;28;20441;-66
2023/06/04 12:29:32;;;;;;;0.68;0.32;;;25.40;71.50;;;;;;5073773;28;20416;-66
2023/06/04 12:32:11;;;;;;;0.43;0.25;;;25.20;72.20;;;;;;5073580;28;20067;-66
2023/06/04 12:34:38;;;;;;;2.20;0.35;;;25.00;73.20;;;;;;5091244;28;20086;-66
2023/06/04 12:37:05;;;;;;;0.57;0.20;;;24.90;73.80;;;;;;5091758;28;20035;-66
2023/06/04 12:39:32;;;;;;;2.92;0.45;;;24.80;74.10;;;;;;5073738;28;20396;-66
2023/06/04 12:41:59;;;;;;;0.50;0.40;;;24.80;73.70;;;;;;5073131;28;20048;-67
2023/06/04 12:44:25;;;;;;;0.80;0.28;;;24.70;73.10;;;;;;5091703;28;20040;-67
2023/06/04 12:46:51;;;;;;;1.08;0.20;;;24.50;72.70;;;;;;5056163;28;20474;-68
2023/06/04 12:49:17;;;;;;;1.23;0.40;;;24.40;71.40;;;;;;5073370;28;20044;-69
2023/06/04 12:51:42;;;;;;;1.08;0.30;;;24.30;72.00;;;;;;5052985;28;20088;-68
2023/06/04 12:54:10;;;;;;;0.88;0.30;;;24.20;72.20;;;;;;5069304;28;20534;-69